Time;durP1;ratioP1;P1;durP2;ratioP2;P2;SDS_P1;SDS_P2;PMS_P1;PMS_P2;Temp;Humidity;BMP_temperature;BMP_pressure;BME280_temperature;BME280_humidity;BME280_pressure;Samples;Min_cycle;Max_cycle;Signal;HPM_P1;HPM_P2
2023/04/24 00:01:46;;;;;;;0.57;0.40;;;17.50;55.40;;;;;;5045246;28;45218;-66
2023/04/24 00:04:14;;;;;;;0.98;0.55;;;17.50;55.40;;;;;;5045278;28;45834;-66
2023/04/24 00:06:42;;;;;;;0.40;0.40;;;17.50;55.40;;;;;;5045004;28;45238;-66
2023/04/24 00:09:09;;;;;;;0.60;0.60;;;17.40;55.40;;;;;;5045442;28;45312;-67
2023/04/24 00:11:36;;;;;;;0.50;0.47;;;17.50;55.40;;;;;;5045188;28;45522;-66
2023/04/24 00:14:03;;;;;;;0.80;0.80;;;17.40;55.40;;;;;;5045008;28;45456;-66
2023/04/24 00:16:31;;;;;;;1.23;0.40;;;17.40;55.50;;;;;;5044862;28;45390;-66
2023/04/24 00:19:00;;;;;;;0.40;0.40;;;17.40;55.50;;;;;;5044911;28;45417;-66
2023/04/24 00:21:27;;;;;;;0.38;0.38;;;17.40;55.50;;;;;;5045046;28;45568;-66
2023/04/24 00:23:54;;;;;;;0.50;0.50;;;17.40;55.60;;;;;;5044909;28;46561;-66
2023/04/24 00:26:21;;;;;;;0.52;0.52;;;17.40;55.60;;;;;;5044748;28;45363;-66
2023/04/24 00:28:48;;;;;;;0.52;0.40;;;17.40;55.60;;;;;;5044986;28;45321;-66
2023/04/24 00:31:15;;;;;;;0.40;0.40;;;17.30;55.50;;;;;;5045369;28;45353;-66
2023/04/24 00:33:43;;;;;;;0.40;0.40;;;17.30;55.50;;;;;;5044817;28;47319;-66
2023/04/24 00:36:09;;;;;;;0.45;0.40;;;17.30;55.60;;;;;;5044747;28;45353;-67
2023/04/24 00:38:36;;;;;;;0.63;0.45;;;17.30;55.50;;;;;;5044597;28;45397;-66
2023/04/24 00:41:03;;;;;;;0.47;0.47;;;17.30;55.60;;;;;;5044780;28;45428;-66
2023/04/24 00:43:30;;;;;;;0.32;0.32;;;17.30;55.60;;;;;;5044453;28;45572;-67
2023/04/24 00:45:57;;;;;;;0.40;0.40;;;17.30;55.60;;;;;;5044571;28;45282;-67
2023/04/24 00:48:24;;;;;;;0.40;0.40;;;17.30;55.60;;;;;;5044576;28;45320;-67
2023/04/24 00:50:53;;;;;;;1.08;0.52;;;17.20;55.60;;;;;;5044521;28;45500;-66
2023/04/24 00:53:20;;;;;;;0.30;0.30;;;17.20;55.60;;;;;;5044180;28;45896;-67
2023/04/24 00:55:47;;;;;;;0.45;0.40;;;17.20;55.70;;;;;;5045605;28;45334;-67
2023/04/24 00:58:14;;;;;;;0.73;0.50;;;17.20;55.60;;;;;;5047908;28;45313;-67
2023/04/24 01:00:41;;;;;;;0.68;0.50;;;17.20;55.70;;;;;;5047778;28;45420;-67
2023/04/24 01:03:08;;;;;;;1.42;0.50;;;17.20;56.20;;;;;;5047603;28;46602;-66
2023/04/24 01:05:35;;;;;;;0.32;0.32;;;17.20;55.70;;;;;;5047620;28;45262;-67
2023/04/24 01:08:03;;;;;;;0.40;0.38;;;17.20;55.70;;;;;;5047671;28;45214;-67
2023/04/24 01:10:30;;;;;;;0.22;0.22;;;17.20;55.70;;;;;;5047813;28;45325;-66
2023/04/24 01:12:57;;;;;;;0.63;0.60;;;17.20;55.60;;;;;;5047427;28;45349;-67
2023/04/24 01:15:24;;;;;;;0.22;0.22;;;17.20;55.70;;;;;;5047387;28;45321;-66
2023/04/24 01:17:50;;;;;;;0.40;0.40;;;17.20;55.60;;;;;;5047732;28;45261;-66
2023/04/24 01:20:17;;;;;;;0.80;0.50;;;17.10;55.60;;;;;;5047452;28;45466;-67
2023/04/24 01:22:45;;;;;;;1.23;0.30;;;17.10;55.60;;;;;;5047272;28;46319;-66
2023/04/24 01:25:12;;;;;;;0.95;0.50;;;17.10;55.60;;;;;;5047312;28;45434;-66
2023/04/24 01:27:39;;;;;;;1.40;0.40;;;17.10;55.80;;;;;;5047342;28;45374;-66
2023/04/24 01:30:08;;;;;;;1.08;0.50;;;17.10;55.60;;;;;;5047530;28;45561;-66
2023/04/24 01:32:35;;;;;;;1.23;0.40;;;17.10;55.70;;;;;;5047056;28;46361;-67
2023/04/24 01:35:02;;;;;;;0.35;0.35;;;17.10;55.70;;;;;;5046956;28;45382;-66
2023/04/24 01:37:29;;;;;;;0.40;0.40;;;17.10;56.20;;;;;;5047194;28;45428;-66
2023/04/24 01:39:57;;;;;;;0.52;0.52;;;17.10;55.80;;;;;;5047206;28;45442;-66
2023/04/24 01:42:24;;;;;;;0.35;0.35;;;17.10;55.80;;;;;;5046877;28;45326;-66
2023/04/24 01:44:51;;;;;;;0.82;0.55;;;17.10;55.70;;;;;;5047093;28;45353;-67
2023/04/24 01:47:17;;;;;;;0.47;0.32;;;17.10;55.70;;;;;;5047168;28;45496;-66
2023/04/24 01:49:44;;;;;;;0.40;0.40;;;17.10;55.70;;;;;;5047174;28;45454;-67
2023/04/24 01:52:11;;;;;;;0.30;0.30;;;17.00;55.70;;;;;;5046797;28;45472;-66
2023/04/24 01:54:38;;;;;;;0.80;0.40;;;17.00;55.70;;;;;;5046956;28;45286;-66
2023/04/24 01:57:06;;;;;;;0.30;0.30;;;17.00;55.70;;;;;;5047016;28;45253;-66
2023/04/24 01:59:33;;;;;;;0.35;0.30;;;17.00;55.70;;;;;;5047059;28;45378;-66
2023/04/24 02:01:59;;;;;;;0.75;0.38;;;17.00;55.70;;;;;;5046550;28;45311;-66
2023/04/24 02:04:26;;;;;;;0.40;0.40;;;17.00;55.70;;;;;;5046680;28;45411;-67
2023/04/24 02:06:53;;;;;;;0.40;0.40;;;17.00;55.70;;;;;;5046763;28;45199;-67
2023/04/24 02:09:20;;;;;;;1.30;0.40;;;17.00;55.70;;;;;;5046864;28;45347;-66
2023/04/24 02:11:46;;;;;;;0.30;0.30;;;16.90;55.70;;;;;;5046149;28;45633;-66
2023/04/24 02:14:15;;;;;;;0.60;0.38;;;16.90;55.60;;;;;;5046458;28;45345;-67
2023/04/24 02:16:42;;;;;;;0.40;0.40;;;16.90;55.70;;;;;;5046662;28;45356;-66
2023/04/24 02:19:09;;;;;;;0.25;0.25;;;16.90;55.70;;;;;;5046668;28;45282;-67
2023/04/24 02:21:36;;;;;;;0.40;0.40;;;17.00;55.80;;;;;;5046139;28;46617;-67
2023/04/24 02:24:02;;;;;;;0.30;0.30;;;16.90;55.70;;;;;;5046326;28;45404;-66
2023/04/24 02:26:31;;;;;;;0.50;0.50;;;16.90;55.80;;;;;;5046217;28;45340;-66
2023/04/24 02:28:58;;;;;;;0.40;0.40;;;16.90;55.80;;;;;;5046691;28;45186;-66
2023/04/24 02:31:26;;;;;;;0.55;0.40;;;16.90;55.80;;;;;;5046084;28;46737;-67
2023/04/24 02:33:53;;;;;;;0.50;0.50;;;16.90;55.80;;;;;;5046287;28;45293;-66
2023/04/24 02:36:20;;;;;;;0.38;0.22;;;16.90;55.80;;;;;;5046368;28;45495;-67
2023/04/24 02:38:46;;;;;;;0.40;0.40;;;16.90;55.80;;;;;;5046462;28;45331;-66
2023/04/24 02:41:13;;;;;;;0.65;0.40;;;16.90;55.80;;;;;;5045899;28;46713;-66
2023/04/24 02:43:40;;;;;;;0.43;0.32;;;16.90;55.80;;;;;;5046090;28;45301;-67
2023/04/24 02:46:07;;;;;;;0.28;0.28;;;16.80;55.80;;;;;;5046109;28;45305;-67
2023/04/24 02:48:35;;;;;;;0.47;0.30;;;16.90;55.80;;;;;;5046314;28;45326;-67
2023/04/24 02:51:02;;;;;;;0.20;0.20;;;16.80;55.70;;;;;;5045615;28;48419;-66
2023/04/24 02:53:29;;;;;;;1.40;0.40;;;16.80;55.80;;;;;;5045973;28;45334;-67
2023/04/24 02:55:56;;;;;;;0.30;0.30;;;16.80;55.80;;;;;;5046121;28;45375;-67
2023/04/24 02:58:23;;;;;;;0.65;0.30;;;16.80;55.80;;;;;;5046114;28;45385;-67
2023/04/24 03:00:50;;;;;;;0.55;0.50;;;16.80;55.80;;;;;;5045486;28;46834;-66
2023/04/24 03:03:17;;;;;;;1.13;0.50;;;16.80;56.40;;;;;;5045798;28;45339;-67
2023/04/24 03:05:45;;;;;;;0.20;0.20;;;16.80;55.80;;;;;;5045838;28;45206;-66
2023/04/24 03:08:12;;;;;;;0.25;0.25;;;16.80;55.80;;;;;;5045967;28;45433;-66
2023/04/24 03:10:39;;;;;;;0.17;0.17;;;16.80;55.80;;;;;;5045432;28;46973;-66
2023/04/24 03:13:06;;;;;;;0.28;0.28;;;16.80;55.90;;;;;;5045603;28;45242;-67
2023/04/24 03:15:32;;;;;;;0.70;0.40;;;16.80;55.90;;;;;;5045765;28;45255;-66
2023/04/24 03:18:00;;;;;;;0.45;0.45;;;16.80;55.80;;;;;;5045503;28;45264;-67
2023/04/24 03:20:27;;;;;;;1.10;0.40;;;16.80;55.80;;;;;;5045151;28;45830;-66
2023/04/24 03:22:56;;;;;;;0.20;0.20;;;16.80;55.80;;;;;;5045426;28;45348;-66
2023/04/24 03:25:23;;;;;;;0.22;0.20;;;16.80;55.80;;;;;;5045498;28;45337;-67
2023/04/24 03:27:49;;;;;;;0.20;0.20;;;16.80;55.80;;;;;;5045523;28;45124;-67
2023/04/24 03:30:16;;;;;;;0.43;0.43;;;16.70;55.80;;;;;;5045105;28;46844;-66
2023/04/24 03:32:43;;;;;;;0.43;0.25;;;16.70;55.80;;;;;;5045543;28;45309;-66
2023/04/24 03:35:10;;;;;;;0.10;0.10;;;16.70;55.80;;;;;;5045492;28;45309;-66
2023/04/24 03:37:37;;;;;;;0.50;0.30;;;16.70;55.80;;;;;;5045569;28;45346;-67
2023/04/24 03:40:08;;;;;;;0.30;0.30;;;16.70;55.80;;;;;;5045082;28;45309;-67
2023/04/24 03:42:34;;;;;;;0.45;0.30;;;16.70;55.80;;;;;;5045356;28;45371;-67
2023/04/24 03:45:01;;;;;;;0.43;0.38;;;16.70;55.80;;;;;;5045315;28;45388;-66
2023/04/24 03:47:33;;;;;;;0.40;0.40;;;16.70;55.90;;;;;;5045466;28;45409;-66
2023/04/24 03:50:00;;;;;;;0.32;0.32;;;16.70;55.90;;;;;;5044994;28;46401;-66
2023/04/24 03:52:27;;;;;;;0.30;0.30;;;16.70;55.80;;;;;;5045307;28;45351;-66
2023/04/24 03:54:54;;;;;;;0.38;0.38;;;16.70;55.80;;;;;;5045245;28;45330;-66
2023/04/24 03:57:22;;;;;;;0.30;0.30;;;16.70;55.90;;;;;;5037101;28;45249;-66
2023/04/24 03:59:49;;;;;;;0.47;0.38;;;16.60;55.90;;;;;;5044778;28;45460;-66
2023/04/24 04:02:15;;;;;;;0.30;0.30;;;16.70;55.90;;;;;;5044801;28;45396;-67
2023/04/24 04:04:42;;;;;;;0.55;0.50;;;16.70;55.90;;;;;;5045102;28;45258;-66
2023/04/24 04:07:09;;;;;;;0.28;0.28;;;16.60;55.90;;;;;;5045292;28;45412;-66
2023/04/24 04:09:36;;;;;;;0.22;0.20;;;16.60;56.00;;;;;;5044708;28;46407;-66
2023/04/24 04:12:02;;;;;;;0.30;0.30;;;16.60;55.90;;;;;;5044647;28;45441;-66
2023/04/24 04:14:31;;;;;;;0.32;0.30;;;16.60;55.90;;;;;;5045024;28;45425;-66
2023/04/24 04:16:58;;;;;;;0.30;0.30;;;16.60;55.90;;;;;;5045208;28;45412;-66
2023/04/24 04:19:24;;;;;;;0.20;0.20;;;16.60;55.90;;;;;;5044679;28;45540;-66
2023/04/24 04:21:53;;;;;;;0.95;0.40;;;16.60;56.00;;;;;;5044499;28;45498;-66
2023/04/24 04:24:22;;;;;;;0.28;0.20;;;16.60;55.90;;;;;;5044834;28;45313;-66
2023/04/24 04:26:50;;;;;;;0.30;0.30;;;16.60;56.00;;;;;;5044551;28;45309;-66
2023/04/24 04:29:17;;;;;;;0.30;0.30;;;16.60;56.00;;;;;;5044566;28;47762;-66
2023/04/24 04:31:45;;;;;;;0.73;0.40;;;16.60;56.00;;;;;;5047081;28;45511;-66
2023/04/24 04:34:13;;;;;;;0.38;0.38;;;16.60;56.00;;;;;;5048257;28;45339;-66
2023/04/24 04:36:39;;;;;;;0.20;0.20;;;16.60;56.00;;;;;;5048327;28;45381;-66
2023/04/24 04:39:07;;;;;;;0.52;0.30;;;16.60;56.00;;;;;;5047900;28;46737;-66
2023/04/24 04:41:35;;;;;;;0.22;0.22;;;16.60;55.90;;;;;;5047852;28;45368;-66
2023/04/24 04:44:04;;;;;;;0.30;0.30;;;16.60;55.90;;;;;;5048092;28;45428;-66
2023/04/24 04:46:32;;;;;;;0.82;0.28;;;16.60;56.00;;;;;;5048240;28;45123;-66
2023/04/24 04:49:01;;;;;;;0.25;0.25;;;16.60;56.00;;;;;;5047838;28;45426;-66
2023/04/24 04:51:28;;;;;;;0.73;0.30;;;16.50;56.00;;;;;;5047506;28;45326;-66
2023/04/24 04:53:54;;;;;;;0.73;0.43;;;16.50;55.90;;;;;;5047947;28;45167;-66
2023/04/24 04:56:21;;;;;;;0.30;0.30;;;16.50;56.00;;;;;;5048076;28;45339;-66
2023/04/24 04:58:48;;;;;;;0.22;0.22;;;16.50;56.00;;;;;;5047640;28;46765;-66
2023/04/24 05:01:15;;;;;;;0.30;0.30;;;16.50;56.00;;;;;;5047337;28;45328;-66
2023/04/24 05:03:42;;;;;;;0.50;0.50;;;16.50;56.00;;;;;;5047840;28;45476;-66
2023/04/24 05:06:10;;;;;;;1.25;0.30;;;16.50;56.00;;;;;;5047890;28;45259;-66
2023/04/24 05:08:37;;;;;;;0.68;0.25;;;16.50;56.00;;;;;;5047474;28;45492;-66
2023/04/24 05:11:04;;;;;;;0.85;0.47;;;16.50;56.00;;;;;;5047331;28;45376;-66
2023/04/24 05:13:31;;;;;;;0.30;0.30;;;16.50;56.00;;;;;;5047728;28;45396;-66
2023/04/24 05:16:03;;;;;;;0.30;0.30;;;16.50;56.00;;;;;;5047830;28;45210;-66
2023/04/24 05:18:30;;;;;;;0.38;0.30;;;16.50;56.00;;;;;;5047204;28;45321;-66
2023/04/24 05:20:57;;;;;;;0.40;0.40;;;16.50;56.00;;;;;;5047107;28;45405;-67
2023/04/24 05:23:25;;;;;;;0.20;0.20;;;16.50;56.10;;;;;;5047391;28;45357;-66
2023/04/24 05:25:52;;;;;;;0.22;0.22;;;16.50;56.10;;;;;;5047423;28;45290;-66
2023/04/24 05:28:19;;;;;;;0.35;0.30;;;16.50;56.00;;;;;;5047287;28;45430;-66
2023/04/24 05:30:46;;;;;;;0.30;0.30;;;16.50;56.10;;;;;;5047073;28;45345;-66
2023/04/24 05:33:13;;;;;;;0.40;0.40;;;16.40;56.10;;;;;;5047444;28;45295;-66
2023/04/24 05:35:45;;;;;;;0.35;0.30;;;16.50;56.10;;;;;;5047506;28;45405;-67
2023/04/24 05:38:12;;;;;;;0.30;0.30;;;16.50;56.10;;;;;;5047038;28;47311;-67
2023/04/24 05:40:40;;;;;;;0.45;0.45;;;16.50;56.10;;;;;;5046882;28;45265;-67
2023/04/24 05:43:07;;;;;;;0.30;0.30;;;16.40;56.00;;;;;;5046989;28;45337;-67
2023/04/24 05:45:35;;;;;;;0.30;0.30;;;16.40;56.10;;;;;;5047310;28;45332;-67
2023/04/24 05:48:02;;;;;;;0.90;0.30;;;16.40;56.10;;;;;;5046914;28;46467;-67
2023/04/24 05:50:29;;;;;;;0.30;0.30;;;16.40;56.10;;;;;;5046967;28;45334;-67
2023/04/24 05:52:57;;;;;;;1.27;0.30;;;16.40;56.10;;;;;;5047138;28;45325;-67
2023/04/24 05:55:24;;;;;;;1.30;0.70;;;16.40;56.10;;;;;;5047124;28;45363;-67
2023/04/24 05:57:52;;;;;;;0.50;0.40;;;16.40;56.10;;;;;;5046786;28;46405;-67
2023/04/24 06:00:20;;;;;;;0.30;0.30;;;16.40;56.10;;;;;;5046575;28;45625;-68
2023/04/24 06:02:47;;;;;;;0.40;0.40;;;16.40;56.10;;;;;;5046940;28;45380;-67
2023/04/24 06:05:14;;;;;;;0.50;0.50;;;16.40;56.00;;;;;;5047025;28;45370;-67
2023/04/24 06:07:41;;;;;;;0.63;0.47;;;16.40;56.10;;;;;;5046500;28;45681;-67
2023/04/24 06:10:09;;;;;;;0.40;0.40;;;16.40;56.10;;;;;;5046607;28;45400;-67
2023/04/24 06:12:36;;;;;;;0.55;0.50;;;16.40;56.10;;;;;;5046900;28;45182;-67
2023/04/24 06:15:05;;;;;;;0.30;0.30;;;16.40;56.10;;;;;;5046785;28;45317;-67
2023/04/24 06:17:32;;;;;;;3.30;0.60;;;16.40;56.10;;;;;;5046541;28;46400;-67
2023/04/24 06:19:58;;;;;;;1.20;0.40;;;16.40;56.10;;;;;;5046266;28;45416;-65
2023/04/24 06:22:25;;;;;;;0.30;0.30;;;16.40;56.00;;;;;;5046496;28;45334;-67
2023/04/24 06:24:52;;;;;;;0.98;0.50;;;16.40;56.10;;;;;;5046763;28;45328;-66
2023/04/24 06:27:19;;;;;;;1.55;0.85;;;16.40;56.20;;;;;;5046191;28;45497;-66
2023/04/24 06:29:52;;;;;;;2.70;0.93;;;16.30;56.40;;;;;;5046322;28;45463;-67
2023/04/24 06:32:20;;;;;;;1.95;0.70;;;16.30;56.40;;;;;;5046556;28;45346;-67
2023/04/24 06:34:47;;;;;;;0.77;0.70;;;16.30;57.00;;;;;;5046684;28;45470;-67
2023/04/24 06:37:14;;;;;;;1.80;0.90;;;16.30;57.00;;;;;;5046375;28;47314;-66
2023/04/24 06:39:41;;;;;;;3.45;1.42;;;16.30;56.50;;;;;;5046155;28;45337;-66
2023/04/24 06:42:09;;;;;;;3.75;1.33;;;16.30;56.60;;;;;;5046156;28;45410;-66
2023/04/24 06:44:40;;;;;;;1.10;1.10;;;16.30;56.60;;;;;;5046402;28;45330;-67
2023/04/24 06:47:07;;;;;;;3.63;1.02;;;16.30;56.80;;;;;;5045896;28;46526;-65
2023/04/24 06:49:35;;;;;;;1.20;1.10;;;16.30;56.70;;;;;;5045943;28;45307;-67
2023/04/24 06:52:02;;;;;;;3.13;1.08;;;16.30;56.70;;;;;;5046180;28;45439;-66
2023/04/24 06:54:29;;;;;;;2.15;1.00;;;16.30;56.60;;;;;;5045473;28;45320;-67
2023/04/24 06:56:57;;;;;;;3.20;0.95;;;16.30;56.50;;;;;;5045862;28;46378;-67
2023/04/24 06:59:24;;;;;;;1.77;1.13;;;16.30;56.40;;;;;;5045868;28;45402;-67
2023/04/24 07:01:51;;;;;;;1.30;1.20;;;16.30;56.40;;;;;;5045827;28;45463;-67
2023/04/24 07:04:17;;;;;;;1.25;1.10;;;16.40;56.40;;;;;;5046210;28;45334;-66
2023/04/24 07:06:46;;;;;;;2.38;1.13;;;16.30;56.40;;;;;;5049605;28;46191;-67
2023/04/24 07:09:13;;;;;;;1.55;1.00;;;16.30;56.30;;;;;;5061255;28;45356;-66
2023/04/24 07:11:40;;;;;;;2.08;1.17;;;16.40;56.30;;;;;;5057328;28;45657;-67
2023/04/24 07:14:07;;;;;;;0.82;0.82;;;16.40;56.20;;;;;;5059556;28;45641;-67
2023/04/24 07:16:34;;;;;;;2.10;0.90;;;16.40;56.90;;;;;;5054836;28;45440;-66
2023/04/24 07:19:01;;;;;;;1.85;1.27;;;16.40;56.20;;;;;;5062932;28;45452;-66
2023/04/24 07:21:28;;;;;;;2.08;1.08;;;16.40;56.30;;;;;;5062984;28;45331;-67
2023/04/24 07:23:56;;;;;;;2.55;1.25;;;16.40;56.20;;;;;;5053174;28;45623;-67
2023/04/24 07:26:23;;;;;;;2.70;1.08;;;16.40;56.20;;;;;;5060904;28;45643;-66
2023/04/24 07:28:49;;;;;;;0.75;0.75;;;16.40;56.10;;;;;;5053744;28;45595;-68
2023/04/24 07:31:16;;;;;;;1.88;1.23;;;16.40;56.10;;;;;;5059240;28;45341;-66
2023/04/24 07:33:43;;;;;;;2.35;0.80;;;16.50;56.10;;;;;;5061795;28;45391;-65
2023/04/24 07:36:15;;;;;;;0.80;0.80;;;16.50;56.00;;;;;;5058621;28;45476;-66
2023/04/24 07:38:41;;;;;;;2.00;0.90;;;16.50;56.00;;;;;;5060062;28;45507;-67
2023/04/24 07:41:10;;;;;;;1.33;1.10;;;16.50;55.90;;;;;;5059330;28;45485;-66
2023/04/24 07:43:39;;;;;;;1.08;0.88;;;16.50;55.90;;;;;;5055986;28;45496;-67
2023/04/24 07:46:11;;;;;;;1.13;0.80;;;16.50;55.80;;;;;;5054833;28;46384;-67
2023/04/24 07:48:38;;;;;;;1.00;0.90;;;16.50;55.80;;;;;;5052069;28;45510;-67
2023/04/24 07:51:04;;;;;;;1.02;0.85;;;16.50;55.70;;;;;;5058866;28;45527;-66
2023/04/24 07:53:31;;;;;;;1.58;0.80;;;16.50;55.70;;;;;;5058068;28;45453;-67
2023/04/24 07:55:58;;;;;;;0.95;0.95;;;16.60;55.80;;;;;;5054652;28;45477;-67
2023/04/24 07:58:26;;;;;;;1.13;0.98;;;16.60;55.70;;;;;;5056233;28;45545;-67
2023/04/24 08:00:53;;;;;;;0.75;0.75;;;16.60;55.70;;;;;;5062888;28;45431;-66
2023/04/24 08:03:20;;;;;;;7.80;1.15;;;16.60;55.80;;;;;;5062867;28;45310;-66
2023/04/24 08:05:47;;;;;;;0.90;0.90;;;16.60;55.70;;;;;;5060937;28;46613;-67
2023/04/24 08:08:14;;;;;;;0.90;0.90;;;16.60;55.70;;;;;;5056725;28;45517;-67
2023/04/24 08:10:41;;;;;;;1.05;0.90;;;16.60;55.70;;;;;;5065695;28;45428;-67
2023/04/24 08:13:08;;;;;;;1.75;0.80;;;16.60;55.60;;;;;;5057347;28;45569;-67
2023/04/24 08:15:36;;;;;;;1.08;0.95;;;16.60;55.60;;;;;;5055656;28;45519;-66
2023/04/24 08:18:03;;;;;;;1.13;0.90;;;16.60;55.50;;;;;;5062828;28;45567;-66
2023/04/24 08:20:29;;;;;;;1.00;1.00;;;16.60;55.60;;;;;;5057500;28;45348;-66
2023/04/24 08:22:57;;;;;;;1.73;1.27;;;16.70;55.70;;;;;;5061705;28;45546;-67
2023/04/24 08:25:24;;;;;;;0.73;0.73;;;16.70;55.70;;;;;;5059438;28;45690;-67
2023/04/24 08:27:51;;;;;;;1.63;0.85;;;16.70;55.60;;;;;;5054987;28;45329;-67
2023/04/24 08:30:18;;;;;;;0.82;0.77;;;16.70;55.60;;;;;;5064270;28;45558;-67
2023/04/24 08:32:46;;;;;;;1.45;1.00;;;16.80;55.70;;;;;;5064714;28;45725;-68
2023/04/24 08:35:13;;;;;;;1.90;1.00;;;16.80;55.80;;;;;;5061750;28;46673;-67
2023/04/24 08:37:40;;;;;;;2.35;1.10;;;16.80;55.80;;;;;;5060558;28;45329;-68
2023/04/24 08:40:10;;;;;;;1.17;1.00;;;16.80;55.60;;;;;;5065471;28;45280;-68
2023/04/24 08:42:37;;;;;;;1.75;1.10;;;16.90;55.70;;;;;;5062130;28;45451;-67
2023/04/24 08:45:06;;;;;;;2.17;1.13;;;16.80;55.60;;;;;;5057018;28;46386;-68
2023/04/24 08:47:32;;;;;;;2.88;1.25;;;16.90;55.60;;;;;;5062294;28;45455;-67
2023/04/24 08:50:02;;;;;;;1.33;1.10;;;16.90;55.40;;;;;;5062692;28;45505;-67
2023/04/24 08:52:29;;;;;;;2.03;1.23;;;16.90;55.70;;;;;;5056414;28;45376;-68
2023/04/24 08:54:56;;;;;;;1.92;1.00;;;16.90;55.70;;;;;;5054761;28;45503;-68
2023/04/24 08:57:23;;;;;;;3.83;1.40;;;16.90;55.60;;;;;;5062757;28;45494;-67
2023/04/24 08:59:49;;;;;;;1.85;1.17;;;16.90;55.40;;;;;;5064000;28;45496;-67
2023/04/24 09:02:16;;;;;;;5.63;1.15;;;17.00;55.50;;;;;;5063392;28;45423;-67
2023/04/24 09:04:43;;;;;;;5.75;1.40;;;17.00;55.30;;;;;;5060724;28;47287;-68
2023/04/24 09:07:11;;;;;;;6.35;1.30;;;17.00;55.20;;;;;;5067672;28;45360;-67
2023/04/24 09:09:38;;;;;;;4.28;1.30;;;17.00;55.20;;;;;;5064406;28;45451;-68
2023/04/24 09:12:05;;;;;;;4.03;1.42;;;17.00;55.10;;;;;;5061522;28;45483;-67
2023/04/24 09:14:32;;;;;;;4.35;1.50;;;17.00;55.20;;;;;;5064720;28;45576;-67
2023/04/24 09:16:59;;;;;;;4.78;1.20;;;17.00;55.00;;;;;;5065506;28;45513;-66
2023/04/24 09:19:26;;;;;;;4.03;1.30;;;17.00;55.00;;;;;;5068475;28;45271;-67
2023/04/24 09:21:53;;;;;;;4.07;1.30;;;17.00;55.10;;;;;;5068069;28;45310;-66
2023/04/24 09:24:23;;;;;;;7.35;1.45;;;17.00;55.10;;;;;;5067956;28;46441;-67
2023/04/24 09:26:50;;;;;;;7.93;1.63;;;17.00;55.10;;;;;;5067828;28;45296;-67
2023/04/24 09:29:17;;;;;;;4.28;1.33;;;17.10;55.20;;;;;;5068093;28;45301;-67
2023/04/24 09:31:44;;;;;;;4.85;1.60;;;17.10;55.10;;;;;;5068158;28;45336;-67
2023/04/24 09:34:11;;;;;;;1.90;1.15;;;17.10;55.50;;;;;;5067738;28;46384;-67
2023/04/24 09:36:39;;;;;;;1.50;1.27;;;17.10;54.80;;;;;;5067580;28;45336;-67
2023/04/24 09:39:07;;;;;;;2.10;1.17;;;17.10;54.80;;;;;;5067733;28;45364;-67
2023/04/24 09:41:36;;;;;;;1.90;1.23;;;17.10;54.90;;;;;;5067652;28;45562;-67
2023/04/24 09:44:12;;;;;;;5.32;1.77;;;17.10;54.90;;;;;;5067377;28;45321;-67
2023/04/24 09:46:39;;;;;;;2.08;1.25;;;17.10;54.80;;;;;;5067463;28;45379;-67
2023/04/24 09:49:09;;;;;;;1.83;1.25;;;17.10;54.80;;;;;;5067575;28;45375;-67
2023/04/24 09:51:37;;;;;;;5.15;1.40;;;17.20;54.60;;;;;;5067693;28;45543;-67
2023/04/24 09:54:04;;;;;;;2.75;1.25;;;17.20;54.60;;;;;;5067136;28;45673;-67
2023/04/24 09:56:34;;;;;;;2.60;1.50;;;17.20;54.60;;;;;;5067385;28;45247;-67
2023/04/24 09:59:07;;;;;;;3.28;1.48;;;17.20;54.30;;;;;;5067231;28;45269;-67
2023/04/24 10:01:34;;;;;;;2.92;1.48;;;17.20;54.10;;;;;;5067184;28;45318;-67
2023/04/24 10:04:01;;;;;;;6.38;1.55;;;17.20;54.40;;;;;;5067263;28;46454;-67
2023/04/24 10:06:33;;;;;;;2.28;1.42;;;17.30;54.20;;;;;;5066927;28;45326;-67
2023/04/24 10:09:00;;;;;;;2.25;1.30;;;17.30;54.30;;;;;;5067358;28;45265;-67
2023/04/24 10:11:27;;;;;;;1.83;1.50;;;17.30;54.20;;;;;;5067198;28;45245;-67
2023/04/24 10:13:55;;;;;;;1.77;1.35;;;17.30;54.10;;;;;;5066936;28;46339;-66
2023/04/24 10:16:23;;;;;;;3.47;1.30;;;17.40;54.20;;;;;;5067154;28;45566;-67
2023/04/24 10:18:51;;;;;;;2.70;1.35;;;17.40;54.10;;;;;;5067291;28;45340;-67
2023/04/24 10:21:18;;;;;;;2.13;1.40;;;17.40;53.90;;;;;;5067082;28;45286;-66
2023/04/24 10:23:46;;;;;;;3.08;1.50;;;17.40;53.80;;;;;;5066471;28;45447;-67
2023/04/24 10:26:17;;;;;;;2.03;1.70;;;17.40;53.80;;;;;;5066411;28;45336;-66
2023/04/24 10:28:44;;;;;;;3.92;1.58;;;17.50;53.60;;;;;;5065513;28;45407;-66
2023/04/24 10:31:11;;;;;;;3.30;1.30;;;17.50;53.50;;;;;;5066813;28;45368;-67
2023/04/24 10:33:41;;;;;;;1.88;1.20;;;17.60;53.40;;;;;;5066548;28;46487;-67
2023/04/24 10:36:08;;;;;;;1.40;1.30;;;17.60;53.40;;;;;;5066441;28;45380;-67
2023/04/24 10:38:35;;;;;;;1.77;1.10;;;17.60;53.30;;;;;;5066548;28;45469;-67
2023/04/24 10:41:09;;;;;;;2.75;1.15;;;17.60;53.20;;;;;;5066671;28;45364;-67
2023/04/24 10:43:36;;;;;;;1.75;1.42;;;17.70;53.20;;;;;;5066240;28;45369;-67
2023/04/24 10:46:03;;;;;;;1.92;1.55;;;17.70;53.20;;;;;;5066263;28;45350;-67
2023/04/24 10:48:30;;;;;;;4.35;1.52;;;17.70;53.20;;;;;;5066309;28;45262;-67
2023/04/24 10:50:58;;;;;;;1.73;1.50;;;17.70;53.20;;;;;;5066404;28;45373;-67
2023/04/24 10:53:27;;;;;;;3.50;1.55;;;17.70;53.20;;;;;;5066125;28;45470;-66
2023/04/24 10:55:58;;;;;;;2.47;1.63;;;17.70;53.10;;;;;;5066094;28;45270;-67
2023/04/24 10:58:26;;;;;;;3.30;1.20;;;17.70;53.10;;;;;;5066289;28;45326;-67
2023/04/24 11:00:59;;;;;;;1.17;1.08;;;17.70;53.10;;;;;;5066271;28;45278;-67
2023/04/24 11:03:27;;;;;;;3.08;1.20;;;17.70;53.00;;;;;;5065881;28;45486;-67
2023/04/24 11:05:58;;;;;;;1.42;1.33;;;17.70;53.10;;;;;;5066025;28;45324;-66
2023/04/24 11:08:32;;;;;;;3.60;1.60;;;17.70;53.10;;;;;;5066068;28;45463;-66
2023/04/24 11:11:00;;;;;;;1.83;1.30;;;17.70;53.00;;;;;;5066275;28;45357;-66
2023/04/24 11:13:28;;;;;;;1.83;1.30;;;17.70;53.00;;;;;;5065836;28;45486;-67
2023/04/24 11:16:14;;;;;;;1.40;1.30;;;17.70;53.00;;;;;;5065649;28;45280;-66
2023/04/24 11:18:45;;;;;;;3.80;1.60;;;17.80;53.10;;;;;;5065874;28;45368;-66
2023/04/24 11:21:13;;;;;;;2.92;1.63;;;17.70;53.10;;;;;;5055540;28;45458;-66
2023/04/24 11:23:40;;;;;;;1.40;1.30;;;17.80;53.20;;;;;;5064002;28;45459;-67
2023/04/24 11:26:14;;;;;;;1.30;1.20;;;17.80;53.00;;;;;;5063426;28;45415;-67
2023/04/24 11:28:46;;;;;;;1.35;1.25;;;17.70;52.90;;;;;;5063594;28;45327;-67
2023/04/24 11:31:35;;;;;;;1.48;1.20;;;17.70;52.80;;;;;;5063598;28;45338;-67
2023/04/24 11:34:10;;;;;;;1.73;1.38;;;17.80;53.00;;;;;;5063939;28;45463;-67
2023/04/24 11:36:38;;;;;;;1.40;1.20;;;17.80;52.90;;;;;;5063301;28;45388;-67
2023/04/24 11:39:05;;;;;;;1.85;1.40;;;17.80;52.90;;;;;;5063860;28;45369;-67
2023/04/24 11:41:32;;;;;;;1.92;1.48;;;17.80;52.80;;;;;;5063402;28;45475;-67
2023/04/24 11:43:59;;;;;;;1.95;1.15;;;17.80;52.70;;;;;;5062632;28;46511;-67
2023/04/24 11:46:28;;;;;;;2.13;1.30;;;17.90;52.70;;;;;;5064097;28;45358;-67
2023/04/24 11:48:55;;;;;;;2.92;1.67;;;17.90;52.60;;;;;;5064126;28;45361;-67
2023/04/24 11:51:23;;;;;;;1.80;1.30;;;18.10;52.50;;;;;;5039494;28;45567;-67
2023/04/24 11:53:51;;;;;;;2.80;1.60;;;18.20;52.10;;;;;;5042616;28;46379;-67
2023/04/24 11:56:19;;;;;;;2.08;1.20;;;18.30;51.80;;;;;;5043652;28;45726;-68
2023/04/24 11:58:46;;;;;;;1.50;1.40;;;18.30;51.80;;;;;;5043109;28;45294;-66
2023/04/24 12:01:13;;;;;;;3.30;1.40;;;18.30;51.90;;;;;;5043993;28;45563;-66
2023/04/24 12:03:42;;;;;;;2.45;1.50;;;18.30;51.90;;;;;;5042655;28;45352;-66
2023/04/24 12:06:10;;;;;;;2.55;1.50;;;18.30;51.80;;;;;;5042605;28;45409;-67
2023/04/24 12:08:37;;;;;;;1.77;1.20;;;18.30;51.80;;;;;;5043843;28;45396;-66
2023/04/24 12:11:07;;;;;;;2.20;1.48;;;18.30;52.00;;;;;;5043919;28;45399;-67
2023/04/24 12:13:34;;;;;;;1.60;1.50;;;18.20;52.00;;;;;;5042683;28;45467;-66
2023/04/24 12:16:03;;;;;;;2.03;1.08;;;18.20;52.20;;;;;;5053828;28;45328;-66
2023/04/24 12:18:30;;;;;;;1.40;1.30;;;18.30;52.10;;;;;;5063788;28;45273;-66
2023/04/24 12:21:18;;;;;;;1.30;1.20;;;18.30;52.00;;;;;;5060406;28;45487;-67
2023/04/24 12:23:45;;;;;;;1.10;1.00;;;18.30;52.00;;;;;;5063630;28;45439;-67
2023/04/24 12:26:16;;;;;;;1.60;1.48;;;18.30;52.00;;;;;;5062384;28;45380;-67
2023/04/24 12:28:43;;;;;;;1.27;1.17;;;18.30;52.10;;;;;;5063062;28;45296;-67
2023/04/24 12:31:10;;;;;;;2.83;1.20;;;18.20;52.10;;;;;;5063679;28;45386;-67
2023/04/24 12:33:38;;;;;;;1.30;1.20;;;18.20;52.30;;;;;;5063708;28;45636;-67
2023/04/24 12:36:06;;;;;;;1.70;1.20;;;18.20;52.30;;;;;;5061857;28;45421;-67
2023/04/24 12:38:39;;;;;;;1.40;1.30;;;18.20;52.40;;;;;;5063792;28;45427;-68
2023/04/24 12:41:07;;;;;;;1.20;1.10;;;18.20;52.30;;;;;;5063738;28;45317;-67
2023/04/24 12:43:35;;;;;;;1.25;1.15;;;18.20;52.20;;;;;;5062630;28;45559;-67
2023/04/24 12:46:02;;;;;;;1.08;1.02;;;18.30;52.00;;;;;;5062899;28;45491;-67
2023/04/24 12:48:29;;;;;;;2.10;1.10;;;18.40;51.80;;;;;;5062864;28;45360;-68
2023/04/24 12:50:56;;;;;;;3.22;1.33;;;18.50;51.80;;;;;;5062860;28;45396;-67